Aviation Digital Data Service (ADDS)

Output produced by METARs form (1530 UTC 19 January 2019)
found at http://www.aviationweather.gov/metar/data/
 
METAR text: RJFF 191500Z AUTO 16010KT 9999 FEW043 BKN050 BKN060 12/05 Q1016 NOSIG RMK A3003
Conditions at: RJFF (FUKUOKA/ITAZUKE , JP) observed 1500 UTC 19 January 2019
Temperature: 12.0°C (54°F)
Dewpoint: 5.0°C (41°F) [RH = 62%]
Pressure (altimeter): 30.00 inches Hg (1016.0 mb)
Winds: from the SSE (160 degrees) at 12 MPH (10 knots; 5.1 m/s)
Visibility: 6 or more miles (10+ km)
Ceiling: 5000 feet AGL
Clouds: few clouds at 4300 feet AGL
broken clouds at 5000 feet AGL
broken clouds at 6000 feet AGL
Weather: no significant weather observed at this time

METAR text: RJFF 191430Z AUTO 16008KT 9999 FEW038 SCT044 OVC047 12/04 Q1017 NOSIG RMK A3004
Conditions at: RJFF (FUKUOKA/ITAZUKE , JP) observed 1430 UTC 19 January 2019
Temperature: 12.0°C (54°F)
Dewpoint: 4.0°C (39°F) [RH = 58%]
Pressure (altimeter): 30.03 inches Hg (1017.0 mb)
Winds: from the SSE (160 degrees) at 9 MPH (8 knots; 4.1 m/s)
Visibility: 6 or more miles (10+ km)
Ceiling: 4700 feet AGL
Clouds: few clouds at 3800 feet AGL
scattered clouds at 4400 feet AGL
overcast cloud deck at 4700 feet AGL
Weather: no significant weather observed at this time

METAR text: RJFF 191400Z AUTO 17007KT 9999 FEW038 SCT041 BKN043 12/04 Q1017 NOSIG RMK A3004
Conditions at: RJFF (FUKUOKA/ITAZUKE , JP) observed 1400 UTC 19 January 2019
Temperature: 12.0°C (54°F)
Dewpoint: 4.0°C (39°F) [RH = 58%]
Pressure (altimeter): 30.03 inches Hg (1017.0 mb)
Winds: from the S (170 degrees) at 8 MPH (7 knots; 3.6 m/s)
Visibility: 6 or more miles (10+ km)
Ceiling: 4300 feet AGL
Clouds: few clouds at 3800 feet AGL
scattered clouds at 4100 feet AGL
broken clouds at 4300 feet AGL
Weather: no significant weather observed at this time

METAR text: RJFF 191330Z 16010KT 9999 -SHRA FEW030 SCT040 BKN045 12/04 Q1017 NOSIG RMK 1CU030 4CU040 6CU045 A3005
Conditions at: RJFF (FUKUOKA/ITAZUKE , JP) observed 1330 UTC 19 January 2019
Temperature: 12.0°C (54°F)
Dewpoint: 4.0°C (39°F) [RH = 58%]
Pressure (altimeter): 30.03 inches Hg (1017.0 mb)
Winds: from the SSE (160 degrees) at 12 MPH (10 knots; 5.1 m/s)
Visibility: 6 or more miles (10+ km)
Ceiling: 4500 feet AGL
Clouds: few clouds at 3000 feet AGL
scattered clouds at 4000 feet AGL
broken clouds at 4500 feet AGL
Weather: -SHRA  (light rain showers)

METAR text: RJFF 191300Z 15011KT 9999 -SHRA FEW030 SCT040 BKN045 12/04 Q1017 NOSIG RMK 1CU030 4CU040 6CU045 A3005
Conditions at: RJFF (FUKUOKA/ITAZUKE , JP) observed 1300 UTC 19 January 2019
Temperature: 12.0°C (54°F)
Dewpoint: 4.0°C (39°F) [RH = 58%]
Pressure (altimeter): 30.03 inches Hg (1017.0 mb)
Winds: from the SSE (150 degrees) at 13 MPH (11 knots; 5.7 m/s)
Visibility: 6 or more miles (10+ km)
Ceiling: 4500 feet AGL
Clouds: few clouds at 3000 feet AGL
scattered clouds at 4000 feet AGL
broken clouds at 4500 feet AGL
Weather: -SHRA  (light rain showers)

METAR text: RJFF 191230Z 15011KT 9999 -SHRA FEW030 SCT040 BKN045 12/03 Q1018 NOSIG RMK 1CU030 4CU040 6CU045 A3006
Conditions at: RJFF (FUKUOKA/ITAZUKE , JP) observed 1230 UTC 19 January 2019
Temperature: 12.0°C (54°F)
Dewpoint: 3.0°C (37°F) [RH = 54%]
Pressure (altimeter): 30.06 inches Hg (1018.0 mb)
Winds: from the SSE (150 degrees) at 13 MPH (11 knots; 5.7 m/s)
Visibility: 6 or more miles (10+ km)
Ceiling: 4500 feet AGL
Clouds: few clouds at 3000 feet AGL
scattered clouds at 4000 feet AGL
broken clouds at 4500 feet AGL
Weather: -SHRA  (light rain showers)

METAR text: RJFF 191200Z 15009KT 9999 FEW030 BKN045 BKN060 11/03 Q1018 NOSIG RMK 1CU030 5CU045 6SC060 A3008
Conditions at: RJFF (FUKUOKA/ITAZUKE , JP) observed 1200 UTC 19 January 2019
Temperature: 11.0°C (52°F)
Dewpoint: 3.0°C (37°F) [RH = 58%]
Pressure (altimeter): 30.06 inches Hg (1018.0 mb)
Winds: from the SSE (150 degrees) at 10 MPH (9 knots; 4.6 m/s)
Visibility: 6 or more miles (10+ km)
Ceiling: 4500 feet AGL
Clouds: few clouds at 3000 feet AGL
broken clouds at 4500 feet AGL
broken clouds at 6000 feet AGL
Weather: no significant weather observed at this time

METAR text: RJFF 191130Z 16008KT 9999 FEW030 SCT045 BKN060 11/03 Q1019 NOSIG RMK 1CU030 4CU045 6SC060 A3009
Conditions at: RJFF (FUKUOKA/ITAZUKE , JP) observed 1130 UTC 19 January 2019
Temperature: 11.0°C (52°F)
Dewpoint: 3.0°C (37°F) [RH = 58%]
Pressure (altimeter): 30.09 inches Hg (1019.0 mb)
Winds: from the SSE (160 degrees) at 9 MPH (8 knots; 4.1 m/s)
Visibility: 6 or more miles (10+ km)
Ceiling: 6000 feet AGL
Clouds: few clouds at 3000 feet AGL
scattered clouds at 4500 feet AGL
broken clouds at 6000 feet AGL
Weather: no significant weather observed at this time

METAR text: RJFF 191100Z 16007KT 9999 FEW030 SCT045 BKN060 11/03 Q1019 NOSIG RMK 1CU030 4CU045 6SC060 A3010
Conditions at: RJFF (FUKUOKA/ITAZUKE , JP) observed 1100 UTC 19 January 2019
Temperature: 11.0°C (52°F)
Dewpoint: 3.0°C (37°F) [RH = 58%]
Pressure (altimeter): 30.09 inches Hg (1019.0 mb)
Winds: from the SSE (160 degrees) at 8 MPH (7 knots; 3.6 m/s)
Visibility: 6 or more miles (10+ km)
Ceiling: 6000 feet AGL
Clouds: few clouds at 3000 feet AGL
scattered clouds at 4500 feet AGL
broken clouds at 6000 feet AGL
Weather: no significant weather observed at this time

METAR text: RJFF 191030Z 16007KT 9999 FEW030 BKN045 11/03 Q1019 NOSIG RMK 1CU030 7SC045 A3011
Conditions at: RJFF (FUKUOKA/ITAZUKE , JP) observed 1030 UTC 19 January 2019
Temperature: 11.0°C (52°F)
Dewpoint: 3.0°C (37°F) [RH = 58%]
Pressure (altimeter): 30.09 inches Hg (1019.0 mb)
Winds: from the SSE (160 degrees) at 8 MPH (7 knots; 3.6 m/s)
Visibility: 6 or more miles (10+ km)
Ceiling: 4500 feet AGL
Clouds: few clouds at 3000 feet AGL
broken clouds at 4500 feet AGL
Weather: no significant weather observed at this time

METAR text: RJFF 191000Z 17008KT 9999 FEW030 BKN045 11/03 Q1019 NOSIG RMK 1CU030 7SC045 A3011
Conditions at: RJFF (FUKUOKA/ITAZUKE , JP) observed 1000 UTC 19 January 2019
Temperature: 11.0°C (52°F)
Dewpoint: 3.0°C (37°F) [RH = 58%]
Pressure (altimeter): 30.09 inches Hg (1019.0 mb)
Winds: from the S (170 degrees) at 9 MPH (8 knots; 4.1 m/s)
Visibility: 6 or more miles (10+ km)
Ceiling: 4500 feet AGL
Clouds: few clouds at 3000 feet AGL
broken clouds at 4500 feet AGL
Weather: no significant weather observed at this time

METAR text: RJFF 190930Z 17007KT 9999 FEW030 SCT045 BKN050 11/03 Q1019 NOSIG RMK 1CU030 3SC045 6SC050 A3012
Conditions at: RJFF (FUKUOKA/ITAZUKE , JP) observed 0930 UTC 19 January 2019
Temperature: 11.0°C (52°F)
Dewpoint: 3.0°C (37°F) [RH = 58%]
Pressure (altimeter): 30.09 inches Hg (1019.0 mb)
Winds: from the S (170 degrees) at 8 MPH (7 knots; 3.6 m/s)
Visibility: 6 or more miles (10+ km)
Ceiling: 5000 feet AGL
Clouds: few clouds at 3000 feet AGL
scattered clouds at 4500 feet AGL
broken clouds at 5000 feet AGL
Weather: no significant weather observed at this time

METAR text: RJFF 190900Z 15010KT 9999 FEW030 SCT045 BKN070 11/03 Q1020 NOSIG RMK 1CU030 3SC045 5AC070 A3012
Conditions at: RJFF (FUKUOKA/ITAZUKE , JP) observed 0900 UTC 19 January 2019
Temperature: 11.0°C (52°F)
Dewpoint: 3.0°C (37°F) [RH = 58%]
Pressure (altimeter): 30.12 inches Hg (1020.0 mb)
Winds: from the SSE (150 degrees) at 12 MPH (10 knots; 5.1 m/s)
Visibility: 6 or more miles (10+ km)
Ceiling: 7000 feet AGL
Clouds: few clouds at 3000 feet AGL
scattered clouds at 4500 feet AGL
broken clouds at 7000 feet AGL
Weather: no significant weather observed at this time

METAR text: RJFF 190830Z 16011KT 9999 FEW035 SCT050 BKN070 11/03 Q1019 NOSIG RMK 1CU035 3SC050 6AC070 A3012
Conditions at: RJFF (FUKUOKA/ITAZUKE , JP) observed 0830 UTC 19 January 2019
Temperature: 11.0°C (52°F)
Dewpoint: 3.0°C (37°F) [RH = 58%]
Pressure (altimeter): 30.09 inches Hg (1019.0 mb)
Winds: from the SSE (160 degrees) at 13 MPH (11 knots; 5.7 m/s)
Visibility: 6 or more miles (10+ km)
Ceiling: 7000 feet AGL
Clouds: few clouds at 3500 feet AGL
scattered clouds at 5000 feet AGL
broken clouds at 7000 feet AGL
Weather: no significant weather observed at this time

METAR text: RJFF 190800Z 17010KT 9999 FEW035 SCT050 BKN070 12/03 Q1020 NOSIG RMK 1CU035 3SC050 6AC070 A3012
Conditions at: RJFF (FUKUOKA/ITAZUKE , JP) observed 0800 UTC 19 January 2019
Temperature: 12.0°C (54°F)
Dewpoint: 3.0°C (37°F) [RH = 54%]
Pressure (altimeter): 30.12 inches Hg (1020.0 mb)
Winds: from the S (170 degrees) at 12 MPH (10 knots; 5.1 m/s)
Visibility: 6 or more miles (10+ km)
Ceiling: 7000 feet AGL
Clouds: few clouds at 3500 feet AGL
scattered clouds at 5000 feet AGL
broken clouds at 7000 feet AGL
Weather: no significant weather observed at this time

METAR text: RJFF 190730Z 15014KT 9999 FEW035 BKN070 12/03 Q1020 NOSIG RMK 1CU035 7AC070 A3013
Conditions at: RJFF (FUKUOKA/ITAZUKE , JP) observed 0730 UTC 19 January 2019
Temperature: 12.0°C (54°F)
Dewpoint: 3.0°C (37°F) [RH = 54%]
Pressure (altimeter): 30.12 inches Hg (1020.0 mb)
Winds: from the SSE (150 degrees) at 16 MPH (14 knots; 7.2 m/s)
Visibility: 6 or more miles (10+ km)
Ceiling: 7000 feet AGL
Clouds: few clouds at 3500 feet AGL
broken clouds at 7000 feet AGL
Weather: no significant weather observed at this time

METAR text: RJFF 190700Z 15014KT 9999 FEW035 BKN080 12/03 Q1020 NOSIG RMK 1CU035 6AC080 A3013
Conditions at: RJFF (FUKUOKA/ITAZUKE , JP) observed 0700 UTC 19 January 2019
Temperature: 12.0°C (54°F)
Dewpoint: 3.0°C (37°F) [RH = 54%]
Pressure (altimeter): 30.12 inches Hg (1020.0 mb)
Winds: from the SSE (150 degrees) at 16 MPH (14 knots; 7.2 m/s)
Visibility: 6 or more miles (10+ km)
Ceiling: 8000 feet AGL
Clouds: few clouds at 3500 feet AGL
broken clouds at 8000 feet AGL
Weather: no significant weather observed at this time

METAR text: RJFF 190630Z 15017KT 9999 FEW035 SCT060 BKN070 11/03 Q1020 NOSIG RMK 1CU035 3SC060 7AC070 A3014
Conditions at: RJFF (FUKUOKA/ITAZUKE , JP) observed 0630 UTC 19 January 2019
Temperature: 11.0°C (52°F)
Dewpoint: 3.0°C (37°F) [RH = 58%]
Pressure (altimeter): 30.12 inches Hg (1020.0 mb)
Winds: from the SSE (150 degrees) at 20 MPH (17 knots; 8.7 m/s)
Visibility: 6 or more miles (10+ km)
Ceiling: 7000 feet AGL
Clouds: few clouds at 3500 feet AGL
scattered clouds at 6000 feet AGL
broken clouds at 7000 feet AGL
Weather: no significant weather observed at this time

METAR text: RJFF 190600Z 15013KT 9999 FEW035 BKN070 12/03 Q1021 NOSIG RMK 1CU035 7AC070 A3015
Conditions at: RJFF (FUKUOKA/ITAZUKE , JP) observed 0600 UTC 19 January 2019
Temperature: 12.0°C (54°F)
Dewpoint: 3.0°C (37°F) [RH = 54%]
Pressure (altimeter): 30.15 inches Hg (1021.0 mb)
Winds: from the SSE (150 degrees) at 15 MPH (13 knots; 6.7 m/s)
Visibility: 6 or more miles (10+ km)
Ceiling: 7000 feet AGL
Clouds: few clouds at 3500 feet AGL
broken clouds at 7000 feet AGL
Weather: no significant weather observed at this time

METAR text: RJFF 190530Z 12006KT 050V150 9999 FEW035 SCT060 BKN070 13/01 Q1021 NOSIG RMK 1CU035 3SC060 7AC070 A3015
Conditions at: RJFF (FUKUOKA/ITAZUKE , JP) observed 0530 UTC 19 January 2019
Temperature: 13.0°C (55°F)
Dewpoint: 1.0°C (34°F) [RH = 44%]
Pressure (altimeter): 30.15 inches Hg (1021.0 mb)
Winds: from the ESE (120 degrees) at 7 MPH (6 knots; 3.1 m/s)
Visibility: 6 or more miles (10+ km)
Ceiling: 7000 feet AGL
Clouds: few clouds at 3500 feet AGL
scattered clouds at 6000 feet AGL
broken clouds at 7000 feet AGL
Weather: no significant weather observed at this time

METAR text: RJFF 190500Z 12003KT 350V170 9999 FEW035 SCT050 BKN060 13/01 Q1022 BECMG 30006KT RMK 1CU035 3SC050 6SC060 A3018
Conditions at: RJFF (FUKUOKA/ITAZUKE , JP) observed 0500 UTC 19 January 2019
Temperature: 13.0°C (55°F)
Dewpoint: 1.0°C (34°F) [RH = 44%]
Pressure (altimeter): 30.18 inches Hg (1022.0 mb)
Winds: from the ESE (120 degrees) at 3 MPH (3 knots; 1.5 m/s)
Visibility: 6 or more miles (10+ km)
Ceiling: 6000 feet AGL
Clouds: few clouds at 3500 feet AGL
scattered clouds at 5000 feet AGL
broken clouds at 6000 feet AGL
Weather: no significant weather observed at this time

METAR text: RJFF 190430Z VRB03KT 9999 FEW035 SCT050 BKN060 13/02 Q1022 BECMG 30008KT
Conditions at: RJFF (FUKUOKA/ITAZUKE , JP) observed 0430 UTC 19 January 2019
Temperature: 13.0°C (55°F)
Dewpoint: 2.0°C (36°F) [RH = 47%]
Pressure (altimeter): 30.18 inches Hg (1022.0 mb)
Winds: variable direction winds at 3 MPH (3 knots; 1.5 m/s)
Visibility: 6 or more miles (10+ km)
Ceiling: 6000 feet AGL
Clouds: few clouds at 3500 feet AGL
scattered clouds at 5000 feet AGL
broken clouds at 6000 feet AGL
Weather: no significant weather observed at this time

METAR text: RJFF 190400Z 17006KT 110V220 9999 FEW030 BKN050 12/02 Q1023 BECMG TL0430 30008KT
Conditions at: RJFF (FUKUOKA/ITAZUKE , JP) observed 0400 UTC 19 January 2019
Temperature: 12.0°C (54°F)
Dewpoint: 2.0°C (36°F) [RH = 50%]
Pressure (altimeter): 30.21 inches Hg (1023.0 mb)
Winds: from the S (170 degrees) at 7 MPH (6 knots; 3.1 m/s)
Visibility: 6 or more miles (10+ km)
Ceiling: 5000 feet AGL
Clouds: few clouds at 3000 feet AGL
broken clouds at 5000 feet AGL
Weather: no significant weather observed at this time

METAR text: RJFF 190330Z 16011KT 9999 FEW030 SCT050 12/02 Q1024 BECMG TL0430 30008KT
Conditions at: RJFF (FUKUOKA/ITAZUKE , JP) observed 0330 UTC 19 January 2019
Temperature: 12.0°C (54°F)
Dewpoint: 2.0°C (36°F) [RH = 50%]
Pressure (altimeter): 30.24 inches Hg (1024.0 mb)
Winds: from the SSE (160 degrees) at 13 MPH (11 knots; 5.7 m/s)
Visibility: 6 or more miles (10+ km)
Ceiling: at least 12,000 feet AGL
Clouds: few clouds at 3000 feet AGL
scattered clouds at 5000 feet AGL
Weather: no significant weather observed at this time

METAR text: RJFF 190300Z 16013KT 9999 FEW030 12/02 Q1024 BECMG FM0330 TL0430 30008KT
Conditions at: RJFF (FUKUOKA/ITAZUKE , JP) observed 0300 UTC 19 January 2019
Temperature: 12.0°C (54°F)
Dewpoint: 2.0°C (36°F) [RH = 50%]
Pressure (altimeter): 30.24 inches Hg (1024.0 mb)
Winds: from the SSE (160 degrees) at 15 MPH (13 knots; 6.7 m/s)
Visibility: 6 or more miles (10+ km)
Ceiling: at least 12,000 feet AGL
Clouds: few clouds at 3000 feet AGL
Weather: no significant weather observed at this time

METAR text: RJFF 190230Z 16013KT 9999 FEW030 11/02 Q1025 BECMG FM0300 TL0400 30008KT
Conditions at: RJFF (FUKUOKA/ITAZUKE , JP) observed 0230 UTC 19 January 2019
Temperature: 11.0°C (52°F)
Dewpoint: 2.0°C (36°F) [RH = 54%]
Pressure (altimeter): 30.27 inches Hg (1025.0 mb)
Winds: from the SSE (160 degrees) at 15 MPH (13 knots; 6.7 m/s)
Visibility: 6 or more miles (10+ km)
Ceiling: at least 12,000 feet AGL
Clouds: few clouds at 3000 feet AGL
Weather: no significant weather observed at this time

METAR text: RJFF 190200Z 16013KT 9999 FEW030 10/02 Q1025 BECMG FM0300 30008KT RMK 1CU030 A3028
Conditions at: RJFF (FUKUOKA/ITAZUKE , JP) observed 0200 UTC 19 January 2019
Temperature: 10.0°C (50°F)
Dewpoint: 2.0°C (36°F) [RH = 57%]
Pressure (altimeter): 30.27 inches Hg (1025.0 mb)
Winds: from the SSE (160 degrees) at 15 MPH (13 knots; 6.7 m/s)
Visibility: 6 or more miles (10+ km)
Ceiling: at least 12,000 feet AGL
Clouds: few clouds at 3000 feet AGL
Weather: no significant weather observed at this time

METAR text: RJFF 190130Z 16014KT 9999 FEW030 09/02 Q1025 BECMG FM0300 30008KT
Conditions at: RJFF (FUKUOKA/ITAZUKE , JP) observed 0130 UTC 19 January 2019
Temperature: 9.0°C (48°F)
Dewpoint: 2.0°C (36°F) [RH = 61%]
Pressure (altimeter): 30.27 inches Hg (1025.0 mb)
Winds: from the SSE (160 degrees) at 16 MPH (14 knots; 7.2 m/s)
Visibility: 6 or more miles (10+ km)
Ceiling: at least 12,000 feet AGL
Clouds: few clouds at 3000 feet AGL
Weather: no significant weather observed at this time

METAR text: RJFF 190100Z 16012KT 140V220 9999 FEW035 08/01 Q1026 NOSIG RMK 1CU035 A3030
Conditions at: RJFF (FUKUOKA/ITAZUKE , JP) observed 0100 UTC 19 January 2019
Temperature: 8.0°C (46°F)
Dewpoint: 1.0°C (34°F) [RH = 61%]
Pressure (altimeter): 30.30 inches Hg (1026.0 mb)
Winds: from the SSE (160 degrees) at 14 MPH (12 knots; 6.2 m/s)
Visibility: 6 or more miles (10+ km)
Ceiling: at least 12,000 feet AGL
Clouds: few clouds at 3500 feet AGL
Weather: no significant weather observed at this time

METAR text: RJFF 190030Z 16011KT 9999 FEW035 07/01 Q1026 NOSIG RMK 1CU035 A3030
Conditions at: RJFF (FUKUOKA/ITAZUKE , JP) observed 0030 UTC 19 January 2019
Temperature: 7.0°C (45°F)
Dewpoint: 1.0°C (34°F) [RH = 66%]
Pressure (altimeter): 30.30 inches Hg (1026.0 mb)
Winds: from the SSE (160 degrees) at 13 MPH (11 knots; 5.7 m/s)
Visibility: 6 or more miles (10+ km)
Ceiling: at least 12,000 feet AGL
Clouds: few clouds at 3500 feet AGL
Weather: no significant weather observed at this time

METAR text: RJFF 190000Z 16009KT 9999 FEW035 06/02 Q1026 NOSIG RMK 1CU035 A3030
Conditions at: RJFF (FUKUOKA/ITAZUKE , JP) observed 0000 UTC 19 January 2019
Temperature: 6.0°C (43°F)
Dewpoint: 2.0°C (36°F) [RH = 75%]
Pressure (altimeter): 30.30 inches Hg (1026.0 mb)
Winds: from the SSE (160 degrees) at 10 MPH (9 knots; 4.6 m/s)
Visibility: 6 or more miles (10+ km)
Ceiling: at least 12,000 feet AGL
Clouds: few clouds at 3500 feet AGL
Weather: no significant weather observed at this time

METAR text: RJFF 182330Z 17008KT 9999 FEW035 05/01 Q1026 NOSIG RMK 1CU035 A3030
Conditions at: RJFF (FUKUOKA/ITAZUKE , JP) observed 2330 UTC 18 January 2019
Temperature: 5.0°C (41°F)
Dewpoint: 1.0°C (34°F) [RH = 75%]
Pressure (altimeter): 30.30 inches Hg (1026.0 mb)
Winds: from the S (170 degrees) at 9 MPH (8 knots; 4.1 m/s)
Visibility: 6 or more miles (10+ km)
Ceiling: at least 12,000 feet AGL
Clouds: few clouds at 3500 feet AGL
Weather: no significant weather observed at this time

METAR text: RJFF 182300Z 15005KT 9999 FEW035 04/00 Q1026 NOSIG RMK 1CU035 A3030
Conditions at: RJFF (FUKUOKA/ITAZUKE , JP) observed 2300 UTC 18 January 2019
Temperature: 4.0°C (39°F)
Dewpoint: 0.0°C (32°F) [RH = 75%]
Pressure (altimeter): 30.30 inches Hg (1026.0 mb)
Winds: from the SSE (150 degrees) at 6 MPH (5 knots; 2.6 m/s)
Visibility: 6 or more miles (10+ km)
Ceiling: at least 12,000 feet AGL
Clouds: few clouds at 3500 feet AGL
Weather: no significant weather observed at this time

METAR text: RJFF 182230Z 15005KT CAVOK 03/M00 Q1025 NOSIG RMK A3029
Conditions at: RJFF (FUKUOKA/ITAZUKE , JP) observed 2230 UTC 18 January 2019
Temperature: 3.0°C (37°F)
Dewpoint: 0.0°C (32°F) [RH = 81%]
Pressure (altimeter): 30.27 inches Hg (1025.0 mb)
Winds: from the SSE (150 degrees) at 6 MPH (5 knots; 2.6 m/s)
Visibility: 6 or more miles (10+ km)
Ceiling: ceiling and visibility are OK
Clouds: unknown
Weather: no significant weather observed at this time

METAR text: RJFF 182200Z 15004KT 9999 FEW040 03/00 Q1025 NOSIG RMK 1CU040 A3028
Conditions at: RJFF (FUKUOKA/ITAZUKE , JP) observed 2200 UTC 18 January 2019
Temperature: 3.0°C (37°F)
Dewpoint: 0.0°C (32°F) [RH = 81%]
Pressure (altimeter): 30.27 inches Hg (1025.0 mb)
Winds: from the SSE (150 degrees) at 5 MPH (4 knots; 2.1 m/s)
Visibility: 6 or more miles (10+ km)
Ceiling: at least 12,000 feet AGL
Clouds: few clouds at 4000 feet AGL
Weather: no significant weather observed at this time

METAR text: RJFF 182130Z 14003KT 9999 FEW035 02/M00 Q1025 NOSIG RMK 1CU035 A3028
Conditions at: RJFF (FUKUOKA/ITAZUKE , JP) observed 2130 UTC 18 January 2019
Temperature: 2.0°C (36°F)
Dewpoint: 0.0°C (32°F) [RH = 87%]
Pressure (altimeter): 30.27 inches Hg (1025.0 mb)
Winds: from the SE (140 degrees) at 3 MPH (3 knots; 1.5 m/s)
Visibility: 6 or more miles (10+ km)
Ceiling: at least 12,000 feet AGL
Clouds: few clouds at 3500 feet AGL
Weather: no significant weather observed at this time

METAR text: RJFF 182100Z 14003KT 9999 FEW035 03/00 Q1025 NOSIG RMK 1CU035 A3027
Conditions at: RJFF (FUKUOKA/ITAZUKE , JP) observed 2100 UTC 18 January 2019
Temperature: 3.0°C (37°F)
Dewpoint: 0.0°C (32°F) [RH = 81%]
Pressure (altimeter): 30.27 inches Hg (1025.0 mb)
Winds: from the SE (140 degrees) at 3 MPH (3 knots; 1.5 m/s)
Visibility: 6 or more miles (10+ km)
Ceiling: at least 12,000 feet AGL
Clouds: few clouds at 3500 feet AGL
Weather: no significant weather observed at this time

METAR text: RJFF 182030Z AUTO 15004KT 9999 NCD 03/00 Q1025 NOSIG RMK A3027
Conditions at: RJFF (FUKUOKA/ITAZUKE , JP) observed 2030 UTC 18 January 2019
Temperature: 3.0°C (37°F)
Dewpoint: 0.0°C (32°F) [RH = 81%]
Pressure (altimeter): 30.27 inches Hg (1025.0 mb)
Winds: from the SSE (150 degrees) at 5 MPH (4 knots; 2.1 m/s)
Visibility: 6 or more miles (10+ km)
Ceiling: at least 12,000 feet AGL
Clouds: sky clear below 12,000 feet AGL
Weather: no significant weather observed at this time

METAR text: RJFF 182000Z AUTO 15005KT 9999 NCD 02/M00 Q1024 NOSIG RMK A3026
Conditions at: RJFF (FUKUOKA/ITAZUKE , JP) observed 2000 UTC 18 January 2019
Temperature: 2.0°C (36°F)
Dewpoint: 0.0°C (32°F) [RH = 87%]
Pressure (altimeter): 30.24 inches Hg (1024.0 mb)
Winds: from the SSE (150 degrees) at 6 MPH (5 knots; 2.6 m/s)
Visibility: 6 or more miles (10+ km)
Ceiling: at least 12,000 feet AGL
Clouds: sky clear below 12,000 feet AGL
Weather: no significant weather observed at this time

METAR text: RJFF 181930Z AUTO 15004KT 9999 NCD 03/M00 Q1024 NOSIG RMK A3026
Conditions at: RJFF (FUKUOKA/ITAZUKE , JP) observed 1930 UTC 18 January 2019
Temperature: 3.0°C (37°F)
Dewpoint: 0.0°C (32°F) [RH = 81%]
Pressure (altimeter): 30.24 inches Hg (1024.0 mb)
Winds: from the SSE (150 degrees) at 5 MPH (4 knots; 2.1 m/s)
Visibility: 6 or more miles (10+ km)
Ceiling: at least 12,000 feet AGL
Clouds: sky clear below 12,000 feet AGL
Weather: no significant weather observed at this time

METAR text: RJFF 181900Z AUTO 14005KT 9999 NSC 03/M00 Q1025 NOSIG RMK A3027
Conditions at: RJFF (FUKUOKA/ITAZUKE , JP) observed 1900 UTC 18 January 2019
Temperature: 3.0°C (37°F)
Dewpoint: 0.0°C (32°F) [RH = 81%]
Pressure (altimeter): 30.27 inches Hg (1025.0 mb)
Winds: from the SE (140 degrees) at 6 MPH (5 knots; 2.6 m/s)
Visibility: 6 or more miles (10+ km)
Ceiling: at least 12,000 feet AGL
Clouds: sky clear below 12,000 feet AGL
Weather: no significant weather observed at this time

METAR text: RJFF 181830Z AUTO 14004KT 9999 NSC 04/01 Q1025 NOSIG RMK A3027
Conditions at: RJFF (FUKUOKA/ITAZUKE , JP) observed 1830 UTC 18 January 2019
Temperature: 4.0°C (39°F)
Dewpoint: 1.0°C (34°F) [RH = 81%]
Pressure (altimeter): 30.27 inches Hg (1025.0 mb)
Winds: from the SE (140 degrees) at 5 MPH (4 knots; 2.1 m/s)
Visibility: 6 or more miles (10+ km)
Ceiling: at least 12,000 feet AGL
Clouds: sky clear below 12,000 feet AGL
Weather: no significant weather observed at this time

METAR text: RJFF 181800Z AUTO 13002KT 9999 NSC 03/00 Q1025 NOSIG RMK A3028
Conditions at: RJFF (FUKUOKA/ITAZUKE , JP) observed 1800 UTC 18 January 2019
Temperature: 3.0°C (37°F)
Dewpoint: 0.0°C (32°F) [RH = 81%]
Pressure (altimeter): 30.27 inches Hg (1025.0 mb)
Winds: from the SE (130 degrees) at 2 MPH (2 knots; 1.0 m/s)
Visibility: 6 or more miles (10+ km)
Ceiling: at least 12,000 feet AGL
Clouds: sky clear below 12,000 feet AGL
Weather: no significant weather observed at this time

METAR text: RJFF 181730Z AUTO VRB02KT 9999 NSC 04/01 Q1025 NOSIG RMK A3028
Conditions at: RJFF (FUKUOKA/ITAZUKE , JP) observed 1730 UTC 18 January 2019
Temperature: 4.0°C (39°F)
Dewpoint: 1.0°C (34°F) [RH = 81%]
Pressure (altimeter): 30.27 inches Hg (1025.0 mb)
Winds: variable direction winds at 2 MPH (2 knots; 1.0 m/s)
Visibility: 6 or more miles (10+ km)
Ceiling: at least 12,000 feet AGL
Clouds: sky clear below 12,000 feet AGL
Weather: no significant weather observed at this time

METAR text: RJFF 181700Z AUTO 13003KT 9999 NCD 04/01 Q1025 NOSIG RMK A3028
Conditions at: RJFF (FUKUOKA/ITAZUKE , JP) observed 1700 UTC 18 January 2019
Temperature: 4.0°C (39°F)
Dewpoint: 1.0°C (34°F) [RH = 81%]
Pressure (altimeter): 30.27 inches Hg (1025.0 mb)
Winds: from the SE (130 degrees) at 3 MPH (3 knots; 1.5 m/s)
Visibility: 6 or more miles (10+ km)
Ceiling: at least 12,000 feet AGL
Clouds: sky clear below 12,000 feet AGL
Weather: no significant weather observed at this time

METAR text: RJFF 181630Z AUTO 17004KT 9999 NCD 02/M00 Q1025 NOSIG RMK A3028
Conditions at: RJFF (FUKUOKA/ITAZUKE , JP) observed 1630 UTC 18 January 2019
Temperature: 2.0°C (36°F)
Dewpoint: 0.0°C (32°F) [RH = 87%]
Pressure (altimeter): 30.27 inches Hg (1025.0 mb)
Winds: from the S (170 degrees) at 5 MPH (4 knots; 2.1 m/s)
Visibility: 6 or more miles (10+ km)
Ceiling: at least 12,000 feet AGL
Clouds: sky clear below 12,000 feet AGL
Weather: no significant weather observed at this time

METAR text: RJFF 181600Z AUTO 12002KT 9999 NCD 04/01 Q1025 NOSIG RMK A3028
Conditions at: RJFF (FUKUOKA/ITAZUKE , JP) observed 1600 UTC 18 January 2019
Temperature: 4.0°C (39°F)
Dewpoint: 1.0°C (34°F) [RH = 81%]
Pressure (altimeter): 30.27 inches Hg (1025.0 mb)
Winds: from the ESE (120 degrees) at 2 MPH (2 knots; 1.0 m/s)
Visibility: 6 or more miles (10+ km)
Ceiling: at least 12,000 feet AGL
Clouds: sky clear below 12,000 feet AGL
Weather: no significant weather observed at this time

METAR text: RJFF 181530Z AUTO 16004KT 9999 NCD 03/M00 Q1025 NOSIG RMK A3028
Conditions at: RJFF (FUKUOKA/ITAZUKE , JP) observed 1530 UTC 18 January 2019
Temperature: 3.0°C (37°F)
Dewpoint: 0.0°C (32°F) [RH = 81%]
Pressure (altimeter): 30.27 inches Hg (1025.0 mb)
Winds: from the SSE (160 degrees) at 5 MPH (4 knots; 2.1 m/s)
Visibility: 6 or more miles (10+ km)
Ceiling: at least 12,000 feet AGL
Clouds: sky clear below 12,000 feet AGL
Weather: no significant weather observed at this time

METAR text: RJFF 181500Z AUTO 16005KT 9999 NCD 03/M00 Q1025 NOSIG RMK A3028
Conditions at: RJFF (FUKUOKA/ITAZUKE , JP) observed 1500 UTC 18 January 2019
Temperature: 3.0°C (37°F)
Dewpoint: 0.0°C (32°F) [RH = 81%]
Pressure (altimeter): 30.27 inches Hg (1025.0 mb)
Winds: from the SSE (160 degrees) at 6 MPH (5 knots; 2.6 m/s)
Visibility: 6 or more miles (10+ km)
Ceiling: at least 12,000 feet AGL
Clouds: sky clear below 12,000 feet AGL
Weather: no significant weather observed at this time

METAR text: RJFF 181430Z AUTO 14003KT 9999 NCD 04/01 Q1026 NOSIG RMK A3030
Conditions at: RJFF (FUKUOKA/ITAZUKE , JP) observed 1430 UTC 18 January 2019
Temperature: 4.0°C (39°F)
Dewpoint: 1.0°C (34°F) [RH = 81%]
Pressure (altimeter): 30.30 inches Hg (1026.0 mb)
Winds: from the SE (140 degrees) at 3 MPH (3 knots; 1.5 m/s)
Visibility: 6 or more miles (10+ km)
Ceiling: at least 12,000 feet AGL
Clouds: sky clear below 12,000 feet AGL
Weather: no significant weather observed at this time

METAR text: RJFF 181400Z AUTO 13003KT 9999 NCD 05/02 Q1026 NOSIG RMK A3030
Conditions at: RJFF (FUKUOKA/ITAZUKE , JP) observed 1400 UTC 18 January 2019
Temperature: 5.0°C (41°F)
Dewpoint: 2.0°C (36°F) [RH = 81%]
Pressure (altimeter): 30.30 inches Hg (1026.0 mb)
Winds: from the SE (130 degrees) at 3 MPH (3 knots; 1.5 m/s)
Visibility: 6 or more miles (10+ km)
Ceiling: at least 12,000 feet AGL
Clouds: sky clear below 12,000 feet AGL
Weather: no significant weather observed at this time

METAR text: RJFF 181330Z 13003KT 9999 FEW035 06/02 Q1026 NOSIG RMK 1CU035 A3030
Conditions at: RJFF (FUKUOKA/ITAZUKE , JP) observed 1330 UTC 18 January 2019
Temperature: 6.0°C (43°F)
Dewpoint: 2.0°C (36°F) [RH = 75%]
Pressure (altimeter): 30.30 inches Hg (1026.0 mb)
Winds: from the SE (130 degrees) at 3 MPH (3 knots; 1.5 m/s)
Visibility: 6 or more miles (10+ km)
Ceiling: at least 12,000 feet AGL
Clouds: few clouds at 3500 feet AGL
Weather: no significant weather observed at this time

METAR text: RJFF 181300Z 17002KT 9999 FEW035 05/01 Q1026 NOSIG RMK 1CU035 A3031
Conditions at: RJFF (FUKUOKA/ITAZUKE , JP) observed 1300 UTC 18 January 2019
Temperature: 5.0°C (41°F)
Dewpoint: 1.0°C (34°F) [RH = 75%]
Pressure (altimeter): 30.30 inches Hg (1026.0 mb)
Winds: from the S (170 degrees) at 2 MPH (2 knots; 1.0 m/s)
Visibility: 6 or more miles (10+ km)
Ceiling: at least 12,000 feet AGL
Clouds: few clouds at 3500 feet AGL
Weather: no significant weather observed at this time

METAR text: RJFF 181230Z 15004KT 100V180 9999 FEW035 SCT/// 06/01 Q1026 NOSIG
Conditions at: RJFF (FUKUOKA/ITAZUKE , JP) observed 1230 UTC 18 January 2019
Temperature: 6.0°C (43°F)
Dewpoint: 1.0°C (34°F) [RH = 70%]
Pressure (altimeter): 30.30 inches Hg (1026.0 mb)
Winds: from the SSE (150 degrees) at 5 MPH (4 knots; 2.1 m/s)
Visibility: 6 or more miles (10+ km)
Ceiling: at least 12,000 feet AGL
Clouds: few clouds at 3500 feet AGL
Weather: no significant weather observed at this time

METAR text: RJFF 181200Z 16004KT 9999 FEW040 BKN/// 06/01 Q1026 NOSIG
Conditions at: RJFF (FUKUOKA/ITAZUKE , JP) observed 1200 UTC 18 January 2019
Temperature: 6.0°C (43°F)
Dewpoint: 1.0°C (34°F) [RH = 70%]
Pressure (altimeter): 30.30 inches Hg (1026.0 mb)
Winds: from the SSE (160 degrees) at 5 MPH (4 knots; 2.1 m/s)
Visibility: 6 or more miles (10+ km)
Ceiling: at least 12,000 feet AGL
Clouds: few clouds at 4000 feet AGL
Weather: no significant weather observed at this time

METAR text: RJFF 181130Z 17003KT 9999 FEW040 BKN/// 07/02 Q1026 NOSIG
Conditions at: RJFF (FUKUOKA/ITAZUKE , JP) observed 1130 UTC 18 January 2019
Temperature: 7.0°C (45°F)
Dewpoint: 2.0°C (36°F) [RH = 70%]
Pressure (altimeter): 30.30 inches Hg (1026.0 mb)
Winds: from the S (170 degrees) at 3 MPH (3 knots; 1.5 m/s)
Visibility: 6 or more miles (10+ km)
Ceiling: at least 12,000 feet AGL
Clouds: few clouds at 4000 feet AGL
Weather: no significant weather observed at this time

METAR text: RJFF 181100Z 16005KT 140V210 9999 FEW035 BKN/// 07/02 Q1026 NOSIG
Conditions at: RJFF (FUKUOKA/ITAZUKE , JP) observed 1100 UTC 18 January 2019
Temperature: 7.0°C (45°F)
Dewpoint: 2.0°C (36°F) [RH = 70%]
Pressure (altimeter): 30.30 inches Hg (1026.0 mb)
Winds: from the SSE (160 degrees) at 6 MPH (5 knots; 2.6 m/s)
Visibility: 6 or more miles (10+ km)
Ceiling: at least 12,000 feet AGL
Clouds: few clouds at 3500 feet AGL
Weather: no significant weather observed at this time

METAR text: RJFF 181030Z VRB01KT 9999 FEW035 07/01 Q1026 BECMG TL1130 14005KT
Conditions at: RJFF (FUKUOKA/ITAZUKE , JP) observed 1030 UTC 18 January 2019
Temperature: 7.0°C (45°F)
Dewpoint: 1.0°C (34°F) [RH = 66%]
Pressure (altimeter): 30.30 inches Hg (1026.0 mb)
Winds: variable direction winds at 1 MPH (1 knots; 0.5 m/s)
Visibility: 6 or more miles (10+ km)
Ceiling: at least 12,000 feet AGL
Clouds: few clouds at 3500 feet AGL
Weather: no significant weather observed at this time

METAR text: RJFF 181000Z 26003KT 230V310 9999 FEW035 09/01 Q1026 BECMG TL1030 14005KT
Conditions at: RJFF (FUKUOKA/ITAZUKE , JP) observed 1000 UTC 18 January 2019
Temperature: 9.0°C (48°F)
Dewpoint: 1.0°C (34°F) [RH = 57%]
Pressure (altimeter): 30.30 inches Hg (1026.0 mb)
Winds: from the W (260 degrees) at 3 MPH (3 knots; 1.5 m/s)
Visibility: 6 or more miles (10+ km)
Ceiling: at least 12,000 feet AGL
Clouds: few clouds at 3500 feet AGL
Weather: no significant weather observed at this time

METAR text: RJFF 180930Z 33003KT 290V030 9999 FEW035 09/02 Q1025 BECMG TL1100 14005KT
Conditions at: RJFF (FUKUOKA/ITAZUKE , JP) observed 0930 UTC 18 January 2019
Temperature: 9.0°C (48°F)
Dewpoint: 2.0°C (36°F) [RH = 61%]
Pressure (altimeter): 30.27 inches Hg (1025.0 mb)
Winds: from the NNW (330 degrees) at 3 MPH (3 knots; 1.5 m/s)
Visibility: 6 or more miles (10+ km)
Ceiling: at least 12,000 feet AGL
Clouds: few clouds at 3500 feet AGL
Weather: no significant weather observed at this time

METAR text: RJFF 180900Z 36004KT 330V050 9999 FEW035 10/02 Q1025 NOSIG RMK 1CU035 A3029
Conditions at: RJFF (FUKUOKA/ITAZUKE , JP) observed 0900 UTC 18 January 2019
Temperature: 10.0°C (50°F)
Dewpoint: 2.0°C (36°F) [RH = 57%]
Pressure (altimeter): 30.27 inches Hg (1025.0 mb)
Winds: from the N (360 degrees) at 5 MPH (4 knots; 2.1 m/s)
Visibility: 6 or more miles (10+ km)
Ceiling: at least 12,000 feet AGL
Clouds: few clouds at 3500 feet AGL
Weather: no significant weather observed at this time

METAR text: RJFF 180830Z VRB02KT 9999 FEW035 10/02 Q1025 NOSIG RMK 1CU035 A3028
Conditions at: RJFF (FUKUOKA/ITAZUKE , JP) observed 0830 UTC 18 January 2019
Temperature: 10.0°C (50°F)
Dewpoint: 2.0°C (36°F) [RH = 57%]
Pressure (altimeter): 30.27 inches Hg (1025.0 mb)
Winds: variable direction winds at 2 MPH (2 knots; 1.0 m/s)
Visibility: 6 or more miles (10+ km)
Ceiling: at least 12,000 feet AGL
Clouds: few clouds at 3500 feet AGL
Weather: no significant weather observed at this time

METAR text: RJFF 180800Z 34004KT 290V050 CAVOK 10/01 Q1025 NOSIG RMK A3027
Conditions at: RJFF (FUKUOKA/ITAZUKE , JP) observed 0800 UTC 18 January 2019
Temperature: 10.0°C (50°F)
Dewpoint: 1.0°C (34°F) [RH = 53%]
Pressure (altimeter): 30.27 inches Hg (1025.0 mb)
Winds: from the NNW (340 degrees) at 5 MPH (4 knots; 2.1 m/s)
Visibility: 6 or more miles (10+ km)
Ceiling: ceiling and visibility are OK
Clouds: unknown
Weather: no significant weather observed at this time

METAR text: RJFF 180730Z 35004KT 250V030 9999 FEW040 10/01 Q1025 NOSIG RMK 1CU040 A3028
Conditions at: RJFF (FUKUOKA/ITAZUKE , JP) observed 0730 UTC 18 January 2019
Temperature: 10.0°C (50°F)
Dewpoint: 1.0°C (34°F) [RH = 53%]
Pressure (altimeter): 30.27 inches Hg (1025.0 mb)
Winds: from the N (350 degrees) at 5 MPH (4 knots; 2.1 m/s)
Visibility: 6 or more miles (10+ km)
Ceiling: at least 12,000 feet AGL
Clouds: few clouds at 4000 feet AGL
Weather: no significant weather observed at this time

METAR text: RJFF 180700Z 35006KT 290V040 9999 FEW040 10/00 Q1025 NOSIG RMK 1CU040 A3028
Conditions at: RJFF (FUKUOKA/ITAZUKE , JP) observed 0700 UTC 18 January 2019
Temperature: 10.0°C (50°F)
Dewpoint: 0.0°C (32°F) [RH = 50%]
Pressure (altimeter): 30.27 inches Hg (1025.0 mb)
Winds: from the N (350 degrees) at 7 MPH (6 knots; 3.1 m/s)
Visibility: 6 or more miles (10+ km)
Ceiling: at least 12,000 feet AGL
Clouds: few clouds at 4000 feet AGL
Weather: no significant weather observed at this time

METAR text: RJFF 180630Z 32005KT 260V030 9999 FEW040 10/00 Q1025 NOSIG RMK 1CU040 A3027
Conditions at: RJFF (FUKUOKA/ITAZUKE , JP) observed 0630 UTC 18 January 2019
Temperature: 10.0°C (50°F)
Dewpoint: 0.0°C (32°F) [RH = 50%]
Pressure (altimeter): 30.27 inches Hg (1025.0 mb)
Winds: from the NW (320 degrees) at 6 MPH (5 knots; 2.6 m/s)
Visibility: 6 or more miles (10+ km)
Ceiling: at least 12,000 feet AGL
Clouds: few clouds at 4000 feet AGL
Weather: no significant weather observed at this time

METAR text: RJFF 180600Z 36007KT 310V030 9999 FEW035 11/00 Q1024 NOSIG RMK 1CU035 A3026
Conditions at: RJFF (FUKUOKA/ITAZUKE , JP) observed 0600 UTC 18 January 2019
Temperature: 11.0°C (52°F)
Dewpoint: 0.0°C (32°F) [RH = 47%]
Pressure (altimeter): 30.24 inches Hg (1024.0 mb)
Winds: from the N (360 degrees) at 8 MPH (7 knots; 3.6 m/s)
Visibility: 6 or more miles (10+ km)
Ceiling: at least 12,000 feet AGL
Clouds: few clouds at 3500 feet AGL
Weather: no significant weather observed at this time

METAR text: RJFF 180530Z 33006KT 300V030 9999 FEW035 11/00 Q1024 NOSIG RMK 1CU035 A3025
Conditions at: RJFF (FUKUOKA/ITAZUKE , JP) observed 0530 UTC 18 January 2019
Temperature: 11.0°C (52°F)
Dewpoint: 0.0°C (32°F) [RH = 47%]
Pressure (altimeter): 30.24 inches Hg (1024.0 mb)
Winds: from the NNW (330 degrees) at 7 MPH (6 knots; 3.1 m/s)
Visibility: 6 or more miles (10+ km)
Ceiling: at least 12,000 feet AGL
Clouds: few clouds at 3500 feet AGL
Weather: no significant weather observed at this time

METAR text: RJFF 180500Z 32006KT 250V360 9999 FEW035 11/00 Q1024 NOSIG RMK 1CU035 A3025
Conditions at: RJFF (FUKUOKA/ITAZUKE , JP) observed 0500 UTC 18 January 2019
Temperature: 11.0°C (52°F)
Dewpoint: 0.0°C (32°F) [RH = 47%]
Pressure (altimeter): 30.24 inches Hg (1024.0 mb)
Winds: from the NW (320 degrees) at 7 MPH (6 knots; 3.1 m/s)
Visibility: 6 or more miles (10+ km)
Ceiling: at least 12,000 feet AGL
Clouds: few clouds at 3500 feet AGL
Weather: no significant weather observed at this time

METAR text: RJFF 180430Z 29007KT 250V340 9999 FEW035 11/M01 Q1024 NOSIG RMK 1CU035 A3026
Conditions at: RJFF (FUKUOKA/ITAZUKE , JP) observed 0430 UTC 18 January 2019
Temperature: 11.0°C (52°F)
Dewpoint: -1.0°C (30°F) [RH = 43%]
Pressure (altimeter): 30.24 inches Hg (1024.0 mb)
Winds: from the WNW (290 degrees) at 8 MPH (7 knots; 3.6 m/s)
Visibility: 6 or more miles (10+ km)
Ceiling: at least 12,000 feet AGL
Clouds: few clouds at 3500 feet AGL
Weather: no significant weather observed at this time

METAR text: RJFF 180400Z 30007KT 9999 FEW035 11/M01 Q1025 NOSIG RMK 1CU035 A3027
Conditions at: RJFF (FUKUOKA/ITAZUKE , JP) observed 0400 UTC 18 January 2019
Temperature: 11.0°C (52°F)
Dewpoint: -1.0°C (30°F) [RH = 43%]
Pressure (altimeter): 30.27 inches Hg (1025.0 mb)
Winds: from the WNW (300 degrees) at 8 MPH (7 knots; 3.6 m/s)
Visibility: 6 or more miles (10+ km)
Ceiling: at least 12,000 feet AGL
Clouds: few clouds at 3500 feet AGL
Weather: no significant weather observed at this time

Forecast for: RJFF (FUKUOKA/ITAZUKE , JP)
Text: TAF RJFF 191107Z 1912/2018 15010KT 9999 FEW025 SCT035 BKN045
Forecast period: 1200 to 1800 UTC 19 January 2019
Forecast type: FROM: standard forecast or significant change
Winds: from the SSE (150 degrees) at 12 MPH (10 knots; 5.1 m/s)
Visibility: 6 or more miles 10+ km)
Ceiling: 4500 feet AGL
Clouds: few clouds at 2500 feet AGL
scattered clouds at 3500 feet AGL
broken clouds at 4500 feet AGL
Weather: no significant weather forecast for this period
Text: BECMG 1918/1920 32010KT
Forecast period: 1800 UTC 19 January 2019 to 1800 UTC 20 January 2019
Forecast type: BECOMING: Conditions expected to become as follows by 2000 UTC 19 January 2019
Winds: from the NW (320 degrees) at 12 MPH (10 knots; 5.1 m/s)
Visibility: 6 or more miles 10+ km)
Ceiling: 4500 feet AGL
Clouds: few clouds at 2500 feet AGL
scattered clouds at 3500 feet AGL
broken clouds at 4500 feet AGL
Weather: no significant weather forecast for this period
Text: TEMPO 1918/2000 4000 -SHRA BR
Forecast period: 1800 UTC 19 January 2019 to 0000 UTC 20 January 2019
Forecast type: TEMPORARY: The following changes expected for less than half the time period
Visibility: 2.49 miles (4.01 km)
Ceiling: unknown
Clouds: missing
Weather: -SHRA BR  (light rain showers, mist)